Terminal Aerodrome Forecast
Issued by NWS Sterling, VA

Current Version | Previous Version | Text Only | Print | Product List | Glossary Off
Versions: 1 2 3 4 5 6 7 8 9 10 11 12 13 14 15 16 17 18 19 20 21 22 23 24 25

000
FTUS41 KLWX 202000 AAA
TAFIAD
TAF AMD
KIAD 202031Z 2021/2124 18007KT 2SM TSRA BKN050CB
     FM202130 17006KT P6SM VCSH BKN050
     FM210800 VRB03KT P6SM FEW015 SCT050
     FM210900 00000KT 5SM BR FEW015 SCT050
     FM211300 VRB03KT P6SM FEW015 SCT050
     FM211700 29005KT P6SM BKN050=

USA.gov is the U.S. government's official web portal to all federal, state and local government web resources and services.